Pagrindinis puslapis
METAR-TAF:

METAR-TAF

Oro uostai :

Kirkenesas, Norvegija

platuma: 69-44N, ilguma: 029-54E, Aukštis: 9 m

Dabartinis oras

Ataskaita buvo paskelbta 29 minutes, ne 02:20 UTC
Vėjas 6 kt iš Rytų/Šiaurės Rytų
Temperatūra -6°C
Drėgmė 86%
Slėgis 990 hPa
Matomumas: 2000 m
sniegas

METAR: ENKR 010220Z 06006KT 2000 -SN VV014 M06/M08 Q0990 RMK WIND 731FT 06017KT

Laikas: 04:49 (02:49 UTC)

Prognozė

Ataskaita buvo paskelbta 49 minutes, ne 02:00 UTC
Prognozė galioja nuo 01 metu 03 UTC su 01 metu 12 UTC
Vėjas 9 kt iš Rytų/Šiaurės Rytų
Matomumas 10 km arba daugiau
Mažai debesys ne aukštis 1000 ft, aukštai iškilę kamuoliniai debesys.
Su prošvaistėmis ne aukštis 3000 ft
sniegas
Laikinai
nuo 01 metu 03 UTC su 01 metu 12 UTC
Matomumas: 4000 m
ne aukštis 1400 ft
sniegas

TAF: ENKR 010200Z 0103/0112 06009KT 9999 -SHSN FEW010TCU BKN030 TEMPO 0103/0112 4000 -SHSN VV014

Orai ataskaitas ir orų prognozės (METAR, TAF).

turimą stotys yra geltonos ir raudonos taškus žemėlapyje.

Perkelti pele per norėdami pamatyti stoties vardą.

Tada spustelėkite, norėdami matyti oro stebėjimo ir prognozės.

Norėdami pakeisti žemėlapį: spustelėkite ant žalios mygtukų su juodo kryžiaus žemyn,; žalią mygtuką su brūkšneliu, jei norite nutolinti; arba žalių rodyklių gretimoms žemėlapius.


METAR-TAF: